Downsville, New York
Current Conditions -  °F | °C
As of 9:55 AM on Saturday 27 Dec 2014 (Local Time) from KMSV Reporting Station
Clear Clear  
Wind Chill:   Ceiling: Unl
Heat Index:   Visibility: 10mi
Dew Point: -1°   Wind: 0mph
Humidity: 75%   Direction: NA
Pressure: 30.24"   Gusts: NA
Location:  42.08°N, 75°W
Report Text: KMSV 271455Z AUTO 00000KT 10SM CLR 03/M01 A3024 RMK AO1 52010
Loading
Personal Weather Stations






























Interactive Weather Map New forecast layout! Learn more

10-Day Weather Forecast

Advertisements
Track Severe Weather on mobile